Time;durP1;ratioP1;P1;durP2;ratioP2;P2;SDS_P1;SDS_P2;PMS_P1;PMS_P2;Temp;Humidity;BMP_temperature;BMP_pressure;BME280_temperature;BME280_humidity;BME280_pressure;Samples;Min_cycle;Max_cycle;Signal;HPM_P1;HPM_P2
2023/12/25 00:00:06;;;;;;;35.60;15.50;;;;;;;5.10;49.55;98744.64;107823;1255;70428;-66
2023/12/25 00:02:33;;;;;;;31.00;15.30;;;;;;;5.10;49.53;98738.20;107933;1260;72687;-66
2023/12/25 00:05:01;;;;;;;29.50;15.10;;;;;;;4.83;50.36;98736.58;107848;1261;61001;-64
2023/12/25 00:07:29;;;;;;;35.70;16.70;;;;;;;4.92;50.15;98730.86;107892;1255;59441;-66
2023/12/25 00:09:56;;;;;;;32.70;15.80;;;;;;;4.92;49.99;98736.42;107907;1263;73014;-65
2023/12/25 00:12:25;;;;;;;34.30;16.30;;;;;;;4.85;50.14;98735.62;107955;1260;70061;-67
2023/12/25 00:14:52;;;;;;;29.00;14.50;;;;;;;5.01;49.85;98734.55;107850;1258;72703;-67
2023/12/25 00:17:20;;;;;;;32.10;15.50;;;;;;;4.91;49.89;98735.62;107942;1260;60446;-65
2023/12/25 00:19:48;;;;;;;36.60;16.40;;;;;;;5.00;49.65;98721.52;108034;1256;59392;-66
2023/12/25 00:22:15;;;;;;;34.00;14.60;;;;;;;4.96;49.58;98718.73;107925;1255;72153;-65
2023/12/25 00:24:44;;;;;;;31.80;15.10;;;;;;;4.70;50.05;98719.66;107754;1257;68687;-64
2023/12/25 00:27:11;;;;;;;31.00;11.40;;;;;;;4.84;49.91;98712.19;107863;1258;72409;-65
2023/12/25 00:29:39;;;;;;;35.40;16.20;;;;;;;4.77;50.01;98706.38;107844;1256;61703;-66
2023/12/25 00:32:06;;;;;;;38.80;17.60;;;;;;;4.81;49.80;98695.96;107878;1257;58955;-66
2023/12/25 00:34:34;;;;;;;36.80;16.50;;;;;;;4.84;49.75;98686.13;107753;1257;73276;-67
2023/12/25 00:37:02;;;;;;;32.50;14.60;;;;;;;4.81;49.96;98682.58;107762;1258;69573;-66
2023/12/25 00:39:29;;;;;;;38.10;18.00;;;;;;;4.77;49.76;98685.48;107755;1262;72925;-65
2023/12/25 00:41:57;;;;;;;39.20;18.70;;;;;;;4.87;49.61;98677.48;107583;1258;61758;-67
2023/12/25 00:44:25;;;;;;;40.70;19.10;;;;;;;4.71;50.01;98669.90;107869;1260;60362;-65
2023/12/25 00:46:53;;;;;;;29.30;13.30;;;;;;;4.69;50.11;98660.05;107758;1257;71154;-66
2023/12/25 00:49:21;;;;;;;43.60;19.20;;;;;;;4.68;50.11;98648.80;107810;1258;70790;-65
2023/12/25 00:51:49;;;;;;;39.40;16.70;;;;;;;4.77;49.86;98641.50;107643;1257;71383;-65
2023/12/25 00:54:17;;;;;;;38.60;17.70;;;;;;;4.77;50.04;98638.40;107737;1257;61692;-66
2023/12/25 00:56:44;;;;;;;41.40;17.90;;;;;;;4.92;49.81;98627.92;107757;1262;59637;-66
2023/12/25 00:59:12;;;;;;;36.20;16.40;;;;;;;4.93;49.57;98620.20;107852;1258;70861;-65
2023/12/25 01:01:40;;;;;;;36.00;17.10;;;;;;;4.99;49.59;98621.71;107771;1262;69315;-65
2023/12/25 01:04:07;;;;;;;32.40;14.70;;;;;;;4.86;49.49;98616.66;107803;1257;73043;-66
2023/12/25 01:06:35;;;;;;;30.40;15.30;;;;;;;4.74;50.02;98600.77;107824;1259;59614;-66
2023/12/25 01:09:02;;;;;;;33.20;13.40;;;;;;;4.66;49.94;98595.30;107788;1257;59087;-66
2023/12/25 01:11:31;;;;;;;28.30;12.30;;;;;;;4.62;50.08;98590.95;107830;1258;71829;-66
2023/12/25 01:13:58;;;;;;;22.30;11.20;;;;;;;4.58;50.23;98584.16;107799;1257;70210;-66
2023/12/25 01:16:27;;;;;;;24.30;11.90;;;;;;;4.51;50.39;98586.87;107725;1262;71408;-67
2023/12/25 01:18:54;;;;;;;25.30;11.00;;;;;;;4.50;50.51;98587.24;107839;1260;60379;-67
2023/12/25 01:21:22;;;;;;;23.60;11.10;;;;;;;4.47;50.76;98583.34;107857;1257;59533;-65
2023/12/25 01:23:49;;;;;;;23.80;11.40;;;;;;;4.57;50.40;98578.61;107772;1262;73119;-66
2023/12/25 01:26:18;;;;;;;22.00;10.40;;;;;;;4.68;50.20;98576.80;107792;1257;69321;-66
2023/12/25 01:28:46;;;;;;;23.00;10.80;;;;;;;4.63;50.30;98580.66;107824;1257;72666;-66
2023/12/25 01:31:13;;;;;;;11.20;5.00;;;;;;;4.42;50.74;98579.87;107847;1260;62022;-64
2023/12/25 01:33:40;;;;;;;17.70;9.20;;;;;;;4.15;51.29;98583.14;107964;1257;59676;-63
2023/12/25 01:36:09;;;;;;;23.30;11.20;;;;;;;4.26;51.19;98581.15;107959;1257;72951;-65
2023/12/25 01:38:36;;;;;;;22.00;10.30;;;;;;;4.43;50.84;98577.25;107938;1257;69503;-67
2023/12/25 01:41:04;;;;;;;26.90;11.00;;;;;;;4.36;51.19;98566.88;107776;1258;71231;-67
2023/12/25 01:43:40;;;;;;;23.70;10.20;;;;;;;4.37;51.25;98558.36;107741;1256;59623;-66
2023/12/25 01:46:10;;;;;;;20.80;10.90;;;;;;;4.21;51.56;98562.05;107929;1256;60056;-66
2023/12/25 01:48:40;;;;;;;23.50;11.10;;;;;;;4.50;51.06;98555.41;107686;1257;73035;-67
2023/12/25 01:51:08;;;;;;;22.70;10.70;;;;;;;4.57;50.94;98558.83;108223;1256;69079;-63
2023/12/25 01:53:35;;;;;;;28.80;12.10;;;;;;;4.59;50.91;98556.48;108069;1254;72851;-66
2023/12/25 01:56:04;;;;;;;17.80;10.00;;;;;;;4.68;50.70;98547.27;108043;1259;61686;-67
2023/12/25 01:58:32;;;;;;;28.80;13.40;;;;;;;4.62;50.74;98544.19;108126;1254;59938;-65
2023/12/25 02:01:00;;;;;;;26.50;12.10;;;;;;;4.84;50.33;98547.69;108075;1254;73031;-65
2023/12/25 02:03:27;;;;;;;34.10;18.20;;;;;;;4.96;50.35;98544.46;108131;1253;69985;-66
2023/12/25 02:05:55;;;;;;;52.60;23.30;;;;;;;5.07;50.30;98535.31;108103;1253;72673;-66
2023/12/25 02:08:23;;;;;;;47.20;20.90;;;;;;;5.18;50.25;98527.36;108150;1257;60706;-66
2023/12/25 02:10:50;;;;;;;29.00;12.40;;;;;;;5.27;50.75;98511.90;108062;1254;59783;-67
2023/12/25 02:13:19;;;;;;;25.80;11.10;;;;;;;5.36;50.56;98510.12;108134;1252;73508;-67
2023/12/25 02:15:48;;;;;;;24.30;11.60;;;;;;;5.41;50.93;98518.97;108169;1254;68832;-65
2023/12/25 02:18:16;;;;;;;20.40;10.90;;;;;;;5.48;50.81;98515.90;108081;1254;72672;-66
2023/12/25 02:20:44;;;;;;;23.60;12.10;;;;;;;5.53;51.09;98521.42;108153;1254;61658;-64
2023/12/25 02:23:13;;;;;;;23.50;10.40;;;;;;;5.41;51.71;98513.56;108125;1254;59576;-64
2023/12/25 02:25:58;;;;;;;27.80;12.70;;;;;;;5.07;52.74;98508.19;108126;1254;73271;-63
2023/12/25 02:28:26;;;;;;;23.00;11.90;;;;;;;5.27;52.66;98498.14;108025;1254;70391;-67
2023/12/25 02:30:54;;;;;;;26.70;12.70;;;;;;;5.26;52.58;98488.25;108022;1257;72698;-66
2023/12/25 02:33:21;;;;;;;21.60;10.60;;;;;;;5.30;53.09;98480.96;108057;1254;60596;-66
2023/12/25 02:35:50;;;;;;;27.70;11.80;;;;;;;5.35;53.07;98480.60;108029;1254;60527;-65
2023/12/25 02:38:18;;;;;;;22.10;10.80;;;;;;;5.03;54.10;98473.39;108038;1254;72619;-66
2023/12/25 02:40:45;;;;;;;27.50;12.40;;;;;;;5.29;53.85;98458.91;108126;1254;69543;-66
2023/12/25 02:43:13;;;;;;;26.10;10.20;;;;;;;5.27;53.77;98444.02;107959;1257;72744;-64
2023/12/25 02:45:41;;;;;;;25.90;13.10;;;;;;;5.16;54.21;98444.83;108026;1258;60423;-66
2023/12/25 02:48:08;;;;;;;31.50;13.80;;;;;;;5.22;54.39;98447.73;108048;1254;60555;-66
2023/12/25 02:50:36;;;;;;;23.10;11.20;;;;;;;5.29;54.36;98442.88;108122;1253;73442;-64
2023/12/25 02:53:04;;;;;;;26.40;12.70;;;;;;;5.30;54.55;98440.59;107967;1257;68088;-66
2023/12/25 02:55:31;;;;;;;28.60;13.20;;;;;;;5.23;54.69;98432.70;108060;1254;73204;-67
2023/12/25 02:57:59;;;;;;;18.40;9.80;;;;;;;5.15;55.07;98430.62;108093;1254;61482;-66
2023/12/25 03:00:27;;;;;;;28.90;12.70;;;;;;;5.20;55.37;98430.90;108163;1254;60470;-65
2023/12/25 03:02:54;;;;;;;29.00;11.50;;;;;;;5.34;55.17;98428.25;108103;1254;72476;-64
2023/12/25 03:05:22;;;;;;;25.80;12.20;;;;;;;5.24;55.42;98422.59;108114;1254;69215;-65
2023/12/25 03:07:50;;;;;;;25.90;12.50;;;;;;;5.28;55.47;98414.95;108100;1254;71525;-66
2023/12/25 03:10:18;;;;;;;23.60;10.90;;;;;;;5.24;55.85;98416.64;108035;1254;60593;-66
2023/12/25 03:12:45;;;;;;;25.30;13.00;;;;;;;5.02;56.77;98407.49;108161;1253;60326;-66
2023/12/25 03:15:13;;;;;;;26.90;12.40;;;;;;;5.25;56.13;98410.52;108075;1254;73865;-66
2023/12/25 03:17:40;;;;;;;28.40;13.30;;;;;;;5.34;55.85;98412.05;107989;1254;69975;-65
2023/12/25 03:20:09;;;;;;;26.20;14.10;;;;;;;5.14;56.37;98394.98;108114;1254;71445;-64
2023/12/25 03:22:37;;;;;;;29.50;14.00;;;;;;;5.07;56.69;98377.73;108082;1254;60385;-66
2023/12/25 03:25:05;;;;;;;25.20;11.70;;;;;;;5.12;56.70;98371.74;108108;1253;60483;-65
2023/12/25 03:27:33;;;;;;;31.40;15.10;;;;;;;5.18;56.58;98354.61;108126;1258;73808;-66
2023/12/25 03:30:01;;;;;;;29.00;13.10;;;;;;;5.00;56.80;98341.15;108146;1253;69979;-66
2023/12/25 03:32:29;;;;;;;24.70;13.00;;;;;;;5.09;56.88;98330.15;108208;1254;71771;-64
2023/12/25 03:34:57;;;;;;;26.30;13.10;;;;;;;5.09;56.93;98313.78;108266;1257;61488;-66
2023/12/25 03:37:25;;;;;;;26.70;13.20;;;;;;;5.10;56.89;98310.46;108175;1254;60011;-67
2023/12/25 03:39:54;;;;;;;26.40;13.70;;;;;;;5.29;56.53;98303.01;108129;1253;73905;-67
2023/12/25 03:42:21;;;;;;;25.30;12.90;;;;;;;5.07;57.13;98293.54;108168;1254;70460;-66
2023/12/25 03:44:49;;;;;;;18.70;8.60;;;;;;;5.03;57.40;98288.13;108136;1254;71157;-67
2023/12/25 03:47:18;;;;;;;25.60;13.50;;;;;;;4.97;57.61;98275.21;108215;1254;60398;-67
2023/12/25 03:49:46;;;;;;;27.30;14.80;;;;;;;5.12;57.21;98267.54;108207;1253;60216;-65
2023/12/25 03:52:13;;;;;;;30.20;14.60;;;;;;;5.39;56.73;98248.05;108249;1252;72827;-64
2023/12/25 03:54:41;;;;;;;32.30;15.00;;;;;;;5.51;56.42;98239.52;108165;1255;69330;-65
2023/12/25 03:57:10;;;;;;;29.50;14.90;;;;;;;5.54;56.46;98234.33;108173;1254;72744;-66
2023/12/25 03:59:39;;;;;;;25.90;13.80;;;;;;;5.66;56.25;98222.25;108074;1255;60603;-67
2023/12/25 04:02:07;;;;;;;25.60;11.70;;;;;;;5.63;56.40;98214.95;108088;1254;60425;-66
2023/12/25 04:04:37;;;;;;;23.90;11.80;;;;;;;5.62;56.39;98209.92;108089;1253;72563;-67
2023/12/25 04:07:05;;;;;;;28.20;13.50;;;;;;;5.62;56.63;98206.79;108068;1259;70168;-64
2023/12/25 04:09:32;;;;;;;26.90;12.20;;;;;;;5.47;57.16;98206.08;108116;1254;71715;-66
2023/12/25 04:12:00;;;;;;;29.10;14.40;;;;;;;5.56;57.09;98197.52;108118;1254;60306;-65
2023/12/25 04:14:28;;;;;;;24.70;13.10;;;;;;;5.60;56.92;98190.34;107996;1253;60326;-68
2023/12/25 04:16:55;;;;;;;31.50;14.80;;;;;;;5.83;56.36;98186.64;108070;1254;73890;-65
2023/12/25 04:19:23;;;;;;;29.30;14.20;;;;;;;5.64;57.26;98182.14;108077;1254;68641;-67
2023/12/25 04:21:51;;;;;;;26.80;12.40;;;;;;;5.67;57.14;98182.17;108130;1253;72443;-66
2023/12/25 04:24:18;;;;;;;22.70;11.80;;;;;;;5.81;56.88;98178.91;108053;1254;60844;-66
2023/12/25 04:26:46;;;;;;;27.50;14.10;;;;;;;5.67;57.60;98167.36;108049;1255;60326;-67
2023/12/25 04:29:14;;;;;;;26.00;13.20;;;;;;;6.02;56.70;98166.23;108076;1254;71598;-66
2023/12/25 04:31:42;;;;;;;22.30;10.70;;;;;;;5.96;57.05;98167.36;108065;1253;68613;-66
2023/12/25 04:34:10;;;;;;;27.30;13.00;;;;;;;5.95;57.55;98163.41;108048;1260;72449;-65
2023/12/25 04:36:37;;;;;;;25.60;13.00;;;;;;;6.05;57.56;98157.01;108050;1257;60774;-65
2023/12/25 04:39:05;;;;;;;21.60;11.80;;;;;;;6.06;57.84;98154.70;108086;1257;60069;-65
2023/12/25 04:41:33;;;;;;;25.50;11.50;;;;;;;5.90;58.85;98152.14;108181;1253;72634;-66
2023/12/25 04:44:00;;;;;;;17.10;9.10;;;;;;;6.07;58.65;98151.52;108000;1254;69893;-66
2023/12/25 04:46:28;;;;;;;26.10;13.50;;;;;;;6.23;58.34;98156.60;108169;1254;72814;-67
2023/12/25 04:48:55;;;;;;;25.10;12.50;;;;;;;6.47;57.81;98144.27;108020;1254;60431;-65
2023/12/25 04:51:23;;;;;;;26.00;13.40;;;;;;;6.44;57.98;98133.91;108138;1257;60310;-65
2023/12/25 04:53:50;;;;;;;20.90;12.00;;;;;;;6.31;58.47;98132.85;108079;1254;72571;-67
2023/12/25 04:56:18;;;;;;;19.20;9.20;;;;;;;6.32;58.50;98124.80;108071;1254;70712;-65
2023/12/25 04:58:46;;;;;;;22.70;11.10;;;;;;;6.18;59.03;98128.30;108063;1254;72760;-65
2023/12/25 05:01:13;;;;;;;26.90;12.60;;;;;;;6.12;59.33;98122.33;108041;1253;60779;-66
2023/12/25 05:03:41;;;;;;;23.70;12.80;;;;;;;6.66;57.96;98107.13;108204;1253;60322;-67
2023/12/25 05:06:09;;;;;;;26.20;14.10;;;;;;;6.77;57.72;98101.68;108122;1252;71581;-66
2023/12/25 05:08:37;;;;;;;25.60;13.10;;;;;;;6.81;57.52;98095.70;108199;1253;68748;-67
2023/12/25 05:11:05;;;;;;;18.50;9.20;;;;;;;6.81;57.33;98091.17;108163;1254;71385;-66
2023/12/25 05:13:32;;;;;;;28.50;13.50;;;;;;;6.59;58.21;98087.27;108179;1253;60425;-65
2023/12/25 05:16:00;;;;;;;20.40;10.80;;;;;;;6.69;57.92;98080.85;108146;1254;60354;-66
2023/12/25 05:18:27;;;;;;;18.80;10.90;;;;;;;6.40;59.12;98075.77;108226;1254;73827;-66
2023/12/25 05:20:55;;;;;;;15.20;8.70;;;;;;;6.66;58.59;98066.69;108190;1252;70186;-66
2023/12/25 05:23:22;;;;;;;21.40;11.50;;;;;;;6.80;58.24;98061.23;108123;1253;71470;-65
2023/12/25 05:25:50;;;;;;;25.30;11.90;;;;;;;6.84;58.18;98058.04;108205;1254;60957;-67
2023/12/25 05:28:18;;;;;;;19.60;11.10;;;;;;;6.70;58.57;98047.83;108143;1252;60316;-67
2023/12/25 05:30:45;;;;;;;16.30;9.20;;;;;;;6.82;58.51;98040.00;108067;1253;74175;-66
2023/12/25 05:33:13;;;;;;;12.90;7.80;;;;;;;6.93;58.37;98029.46;108028;1258;69181;-66
2023/12/25 05:35:41;;;;;;;21.70;11.50;;;;;;;7.04;58.15;98022.92;108080;1253;71154;-68
2023/12/25 05:38:08;;;;;;;19.50;9.10;;;;;;;7.09;57.93;98017.06;108075;1256;60911;-66
2023/12/25 05:40:36;;;;;;;27.90;12.60;;;;;;;6.62;59.42;98022.42;108086;1253;60380;-66
2023/12/25 05:43:03;;;;;;;25.80;14.10;;;;;;;6.95;58.84;98018.73;108091;1253;74173;-67
2023/12/25 05:45:31;;;;;;;22.00;12.30;;;;;;;7.22;58.13;98018.39;108054;1254;68897;-66
2023/12/25 05:47:58;;;;;;;21.70;12.40;;;;;;;7.29;58.07;98007.56;108061;1253;71914;-67
2023/12/25 05:50:26;;;;;;;23.80;12.70;;;;;;;7.19;58.33;97994.85;108045;1253;60549;-67
2023/12/25 05:52:54;;;;;;;24.10;14.00;;;;;;;7.25;58.11;97994.86;107998;1254;60450;-65
2023/12/25 05:55:21;;;;;;;22.30;12.10;;;;;;;7.49;57.62;97987.00;107976;1253;73302;-66
2023/12/25 05:57:49;;;;;;;24.60;11.40;;;;;;;7.31;58.30;97980.00;108111;1253;68951;-66
2023/12/25 06:00:17;;;;;;;15.50;8.60;;;;;;;7.39;58.19;97980.28;108113;1254;71825;-67
2023/12/25 06:02:45;;;;;;;17.10;9.90;;;;;;;7.57;58.11;97978.84;108093;1253;60270;-65
2023/12/25 06:05:13;;;;;;;19.40;12.10;;;;;;;7.72;57.58;97980.77;108077;1254;60264;-65
2023/12/25 06:07:40;;;;;;;18.40;11.60;;;;;;;7.78;57.52;97971.48;108097;1254;74887;-66
2023/12/25 06:10:08;;;;;;;19.00;9.90;;;;;;;7.66;57.85;97978.31;107907;1253;70272;-65
2023/12/25 06:12:36;;;;;;;20.60;11.40;;;;;;;7.61;58.34;97970.41;108051;1253;72441;-66
2023/12/25 06:15:05;;;;;;;17.60;10.00;;;;;;;7.77;57.98;97978.37;108039;1253;60902;-67
2023/12/25 06:17:33;;;;;;;24.70;13.70;;;;;;;7.85;57.69;97980.30;108067;1253;60411;-67
2023/12/25 06:20:04;;;;;;;21.70;12.30;;;;;;;7.94;57.48;97967.20;108086;1253;73935;-67
2023/12/25 06:22:45;;;;;;;20.20;10.10;;;;;;;7.78;58.10;97975.31;108058;1258;69524;-66
2023/12/25 06:25:12;;;;;;;27.60;15.00;;;;;;;7.63;58.78;97975.33;108072;1253;71379;-67
2023/12/25 06:27:40;;;;;;;26.00;15.40;;;;;;;7.97;57.87;97967.54;108060;1254;59603;-68
2023/12/25 06:30:25;;;;;;;29.90;17.00;;;;;;;7.88;58.23;97968.79;108103;1253;60267;-65
2023/12/25 06:32:53;;;;;;;29.10;16.70;;;;;;;8.07;57.67;97965.70;108209;1253;73871;-67
2023/12/25 06:35:21;;;;;;;20.10;11.60;;;;;;;8.06;57.68;97965.79;108147;1253;69172;-67
2023/12/25 06:37:49;;;;;;;28.90;16.20;;;;;;;7.98;58.35;97959.13;108197;1252;72713;-67
2023/12/25 06:40:16;;;;;;;31.10;16.50;;;;;;;8.10;58.01;97963.12;108092;1257;60279;-65
2023/12/25 06:42:44;;;;;;;31.90;16.40;;;;;;;8.21;57.92;97961.67;108127;1254;60311;-68
2023/12/25 06:45:11;;;;;;;27.20;14.70;;;;;;;8.28;57.69;97957.63;108184;1254;73777;-67
2023/12/25 06:47:39;;;;;;;18.70;10.00;;;;;;;8.42;57.61;97956.26;108179;1254;70548;-67
2023/12/25 06:50:07;;;;;;;26.50;14.60;;;;;;;8.14;58.39;97953.21;108221;1254;71736;-67
2023/12/25 06:52:35;;;;;;;28.80;14.20;;;;;;;8.54;57.56;97952.17;108155;1254;60444;-67
2023/12/25 06:55:03;;;;;;;26.40;14.40;;;;;;;8.58;57.24;97951.03;108132;1252;60249;-67
2023/12/25 06:57:31;;;;;;;25.40;13.30;;;;;;;8.58;57.18;97946.86;108093;1253;73793;-67
2023/12/25 06:59:58;;;;;;;25.20;11.80;;;;;;;8.68;56.99;97944.13;108141;1253;68563;-67
2023/12/25 07:02:26;;;;;;;23.70;12.10;;;;;;;8.58;57.30;97940.04;108182;1253;72654;-67
2023/12/25 07:04:53;;;;;;;22.10;13.00;;;;;;;8.67;57.21;97934.89;108146;1254;60521;-67
2023/12/25 07:07:21;;;;;;;27.40;14.20;;;;;;;8.91;56.71;97926.55;108167;1252;60352;-67
2023/12/25 07:09:48;;;;;;;22.50;12.70;;;;;;;8.86;56.84;97925.77;108187;1253;72810;-65
2023/12/25 07:12:16;;;;;;;30.00;15.40;;;;;;;8.96;56.64;97928.45;108105;1253;70106;-66
2023/12/25 07:14:45;;;;;;;24.10;14.20;;;;;;;8.96;56.58;97924.63;108116;1254;72525;-66
2023/12/25 07:17:12;;;;;;;26.10;13.60;;;;;;;8.73;57.20;97923.52;108177;1253;60309;-66
2023/12/25 07:19:40;;;;;;;27.30;15.50;;;;;;;8.70;57.37;97919.33;108248;1252;60364;-66
2023/12/25 07:22:09;;;;;;;20.90;11.50;;;;;;;8.76;57.16;97915.96;108209;1253;72862;-67
2023/12/25 07:24:36;;;;;;;25.00;13.70;;;;;;;8.61;57.70;97924.95;108151;1254;68807;-67
2023/12/25 07:27:04;;;;;;;25.30;13.30;;;;;;;8.63;57.68;97925.04;108159;1254;71424;-65
2023/12/25 07:29:32;;;;;;;23.00;12.70;;;;;;;8.58;57.69;97926.02;108154;1257;61059;-66
2023/12/25 07:32:00;;;;;;;32.80;18.20;;;;;;;8.75;57.48;97914.09;108162;1253;60328;-67
2023/12/25 07:34:28;;;;;;;28.40;15.40;;;;;;;8.41;58.38;97914.00;108081;1253;73927;-66
2023/12/25 07:36:56;;;;;;;31.50;17.80;;;;;;;8.09;59.57;97915.61;108092;1254;69960;-66
2023/12/25 07:39:23;;;;;;;36.00;17.40;;;;;;;8.30;59.22;97912.37;108064;1254;73245;-67
2023/12/25 07:41:51;;;;;;;33.40;17.10;;;;;;;8.37;59.18;97911.94;108051;1253;61093;-67
2023/12/25 07:44:22;;;;;;;36.00;18.00;;;;;;;8.56;58.69;97909.20;108084;1253;59273;-67
2023/12/25 07:46:49;;;;;;;36.00;20.80;;;;;;;8.69;58.38;97904.02;108134;1253;74362;-67
2023/12/25 07:49:17;;;;;;;39.40;21.70;;;;;;;8.65;58.28;97904.92;108079;1253;72568;-66
2023/12/25 07:51:45;;;;;;;42.40;20.20;;;;;;;8.58;58.79;97902.45;108063;1253;71530;-67
2023/12/25 07:54:13;;;;;;;42.40;22.10;;;;;;;8.56;59.07;97898.02;108046;1253;60846;-67
2023/12/25 07:56:40;;;;;;;40.00;19.70;;;;;;;8.53;59.16;97902.91;108013;1253;60325;-67
2023/12/25 07:59:08;;;;;;;31.40;16.10;;;;;;;8.60;59.33;97900.19;108097;1253;72697;-66
2023/12/25 08:01:35;;;;;;;27.60;14.80;;;;;;;8.71;59.44;97902.27;108124;1253;70187;-67
2023/12/25 08:04:03;;;;;;;20.70;11.20;;;;;;;8.67;59.86;97897.63;108024;1253;72664;-67
2023/12/25 08:06:31;;;;;;;19.40;11.10;;;;;;;8.68;61.19;97889.30;108100;1253;60418;-66
2023/12/25 08:08:59;;;;;;;22.70;10.90;;;;;;;8.98;61.08;97896.30;108085;1253;60223;-65
2023/12/25 08:11:27;;;;;;;21.40;10.60;;;;;;;9.27;60.57;97892.98;108162;1253;72735;-67
2023/12/25 08:13:56;;;;;;;16.40;9.50;;;;;;;9.26;60.80;97896.73;108106;1253;69044;-67
2023/12/25 08:16:24;;;;;;;18.80;10.60;;;;;;;9.27;61.24;97888.60;108159;1253;71880;-67
2023/12/25 08:18:52;;;;;;;19.30;10.30;;;;;;;9.49;61.25;97883.09;108020;1254;60826;-66
2023/12/25 08:21:20;;;;;;;15.60;9.60;;;;;;;9.62;61.10;97875.00;108094;1253;59201;-66
2023/12/25 08:23:47;;;;;;;17.50;9.00;;;;;;;9.77;60.84;97875.72;108148;1253;74111;-66
2023/12/25 08:26:15;;;;;;;14.60;8.80;;;;;;;9.49;61.95;97868.88;108047;1258;69221;-65
2023/12/25 08:28:43;;;;;;;19.00;9.50;;;;;;;9.79;61.23;97872.79;108068;1253;71502;-66
2023/12/25 08:31:10;;;;;;;14.60;8.60;;;;;;;9.84;61.16;97874.91;108104;1257;60952;-66
2023/12/25 08:33:38;;;;;;;16.00;9.00;;;;;;;9.77;61.63;97875.02;108195;1253;60357;-66
2023/12/25 08:36:06;;;;;;;15.60;10.10;;;;;;;10.09;60.74;97868.57;108174;1254;73994;-66
2023/12/25 08:38:35;;;;;;;15.10;8.60;;;;;;;10.12;60.55;97870.65;108204;1254;69111;-67
2023/12/25 08:41:04;;;;;;;18.00;8.80;;;;;;;10.11;60.66;97871.04;108145;1254;72736;-67
2023/12/25 08:43:32;;;;;;;19.60;10.40;;;;;;;10.20;60.52;97873.74;108168;1253;60559;-67
2023/12/25 08:46:00;;;;;;;17.60;9.90;;;;;;;10.23;60.63;97876.14;108134;1253;60414;-66
2023/12/25 08:48:27;;;;;;;17.90;9.20;;;;;;;10.38;60.49;97875.84;108135;1254;72977;-68
2023/12/25 08:50:55;;;;;;;14.70;9.60;;;;;;;10.43;60.66;97879.88;108133;1253;69046;-68
2023/12/25 08:53:23;;;;;;;19.00;9.60;;;;;;;10.60;60.22;97882.33;108121;1253;71447;-67
2023/12/25 08:55:51;;;;;;;17.40;9.90;;;;;;;10.80;59.62;97883.27;108117;1253;60469;-68
2023/12/25 08:58:19;;;;;;;16.90;9.00;;;;;;;10.68;60.03;97883.86;108121;1253;60512;-67
2023/12/25 09:00:47;;;;;;;20.00;9.30;;;;;;;10.57;60.10;97883.23;108080;1253;75886;-67
2023/12/25 09:03:14;;;;;;;16.30;9.60;;;;;;;10.77;59.71;97885.60;108106;1253;69297;-68
2023/12/25 09:05:42;;;;;;;13.90;8.30;;;;;;;10.78;59.72;97882.59;108117;1254;71483;-67
2023/12/25 09:08:11;;;;;;;19.00;10.20;;;;;;;10.80;59.64;97882.41;108133;1252;60985;-67
2023/12/25 09:10:38;;;;;;;13.30;8.60;;;;;;;10.72;59.90;97875.09;108177;1253;60422;-69
2023/12/25 09:13:06;;;;;;;15.90;8.90;;;;;;;10.69;60.18;97868.69;108222;1253;73891;-68
2023/12/25 09:15:34;;;;;;;17.20;9.40;;;;;;;10.94;59.59;97872.10;108113;1252;70010;-68
2023/12/25 09:18:02;;;;;;;15.00;9.20;;;;;;;11.02;59.47;97866.21;108129;1254;71406;-68
2023/12/25 09:20:30;;;;;;;14.40;9.30;;;;;;;11.13;59.08;97866.46;108102;1254;60917;-67
2023/12/25 09:22:58;;;;;;;13.50;8.60;;;;;;;11.14;59.04;97864.77;108034;1254;60345;-67
2023/12/25 09:25:26;;;;;;;15.70;10.00;;;;;;;11.05;59.38;97864.37;108159;1253;73978;-68
2023/12/25 09:27:53;;;;;;;17.70;10.30;;;;;;;11.18;59.15;97861.55;108118;1254;70495;-68
2023/12/25 09:30:21;;;;;;;14.70;8.80;;;;;;;11.23;59.44;97854.83;108102;1254;70596;-68
2023/12/25 09:32:49;;;;;;;15.70;10.00;;;;;;;11.50;58.75;97854.14;108008;1253;60899;-68
2023/12/25 09:35:18;;;;;;;18.00;9.10;;;;;;;11.68;58.44;97855.04;108066;1253;60422;-67
2023/12/25 09:37:45;;;;;;;15.90;9.00;;;;;;;11.47;59.25;97853.66;108068;1253;72864;-68
2023/12/25 09:40:13;;;;;;;16.40;10.00;;;;;;;11.86;58.42;97855.24;108055;1253;70559;-68
2023/12/25 09:42:41;;;;;;;13.30;8.50;;;;;;;11.99;58.33;97858.11;108027;1253;70517;-68
2023/12/25 09:45:09;;;;;;;13.10;8.50;;;;;;;12.22;57.87;97852.95;107990;1253;61204;-68
2023/12/25 09:47:37;;;;;;;15.70;7.90;;;;;;;12.50;57.54;97848.80;108037;1253;62258;-68
2023/12/25 09:50:05;;;;;;;12.20;7.40;;;;;;;12.69;57.57;97844.78;107992;1253;75949;-68
2023/12/25 09:52:33;;;;;;;13.20;8.50;;;;;;;13.53;56.87;97846.91;108044;1253;70868;-67
2023/12/25 09:55:00;;;;;;;12.00;7.80;;;;;;;14.02;55.06;97845.70;107988;1253;72951;-67
2023/12/25 09:57:29;;;;;;;12.10;7.10;;;;;;;14.32;53.51;97846.36;108022;1254;60440;-68
2023/12/25 09:59:57;;;;;;;12.60;7.10;;;;;;;14.27;52.63;97846.16;108064;1253;60051;-67
2023/12/25 10:02:25;;;;;;;9.80;6.30;;;;;;;14.05;52.87;97840.98;107906;1253;74852;-66
2023/12/25 10:04:52;;;;;;;10.80;6.80;;;;;;;14.05;52.55;97848.23;107870;1253;68982;-66
2023/12/25 10:07:20;;;;;;;11.30;6.40;;;;;;;13.82;52.99;97853.56;108028;1253;71935;-67
2023/12/25 10:09:49;;;;;;;10.80;6.70;;;;;;;13.67;53.98;97853.27;108058;1258;60345;-68
2023/12/25 10:12:16;;;;;;;12.60;7.20;;;;;;;13.46;54.03;97853.72;108153;1253;60971;-68
2023/12/25 10:14:44;;;;;;;10.70;6.40;;;;;;;13.26;54.77;97861.50;108045;1253;73791;-68
2023/12/25 10:17:12;;;;;;;8.90;6.10;;;;;;;13.24;55.09;97857.27;108033;1253;69229;-67
2023/12/25 10:19:55;;;;;;;12.00;6.30;;;;;;;13.24;54.95;97860.12;108000;1254;72950;-67
2023/12/25 10:22:33;;;;;;;8.90;6.10;;;;;;;13.15;55.75;97863.84;108015;1253;60511;-66
2023/12/25 10:25:09;;;;;;;8.30;6.00;;;;;;;13.08;55.68;97862.84;108100;1253;62607;-67
2023/12/25 10:27:42;;;;;;;13.50;6.40;;;;;;;13.06;55.91;97865.66;108124;1253;73858;-68
2023/12/25 10:30:17;;;;;;;11.20;5.80;;;;;;;12.85;57.14;97865.94;108014;1253;69947;-68
2023/12/25 10:32:47;;;;;;;8.60;6.00;;;;;;;12.78;57.46;97860.02;108006;1253;71754;-68
2023/12/25 10:35:19;;;;;;;9.80;6.10;;;;;;;13.02;56.74;97859.45;108018;1254;60891;-67
2023/12/25 10:37:46;;;;;;;10.20;5.80;;;;;;;13.04;56.81;97860.73;107985;1253;129261;-68
2023/12/25 10:41:24;;;;;;;11.10;6.90;;;;;;;10.64;63.56;97872.29;105417;1285;601678;-67
2023/12/25 10:43:53;;;;;;;9.50;6.00;;;;;;;11.45;61.51;97871.61;107224;1269;59334;-68
2023/12/25 10:46:26;;;;;;;9.00;5.60;;;;;;;11.70;61.32;97868.75;107186;1269;60104;-68
2023/12/25 10:48:55;;;;;;;10.40;5.70;;;;;;;11.70;61.15;97868.24;107228;1270;70948;-68
2023/12/25 10:51:32;;;;;;;10.50;5.90;;;;;;;11.77;60.59;97868.22;107294;1269;67744;-68
2023/12/25 10:54:01;;;;;;;13.60;6.90;;;;;;;11.69;61.17;97872.52;107241;1264;157758;-68
2023/12/25 10:56:31;;;;;;;9.80;6.00;;;;;;;11.89;60.70;97870.63;107350;1265;60023;-69
2023/12/25 10:59:24;;;;;;;10.90;6.60;;;;;;;12.13;59.93;97869.97;107394;1264;59817;-68
2023/12/25 11:01:54;;;;;;;12.50;6.50;;;;;;;12.11;59.91;97872.32;107358;1266;72261;-68
2023/12/25 11:04:23;;;;;;;9.90;6.20;;;;;;;12.18;59.38;97871.38;107330;1266;68775;-69
2023/12/25 11:06:52;;;;;;;13.30;6.60;;;;;;;12.14;60.01;97869.39;107323;1266;72711;-69
2023/12/25 11:09:22;;;;;;;9.50;6.50;;;;;;;12.37;59.58;97871.27;107343;1264;59950;-68
2023/12/25 11:11:50;;;;;;;12.20;6.90;;;;;;;12.39;59.29;97874.47;107265;1268;60147;-67
2023/12/25 11:14:18;;;;;;;11.00;6.20;;;;;;;12.34;60.05;97882.46;107290;1264;72238;-68
2023/12/25 11:16:46;;;;;;;12.60;6.80;;;;;;;12.97;60.40;97884.83;107274;1265;69927;-69
2023/12/25 11:19:13;;;;;;;13.30;6.80;;;;;;;13.48;58.66;97885.05;107285;1266;73917;-68
2023/12/25 11:21:41;;;;;;;11.20;6.30;;;;;;;13.78;56.78;97884.48;107259;1264;61018;-68